createdAt,value
2022-08-30T00:00:35.706Z,7.32
2022-08-30T00:01:09.161Z,5.88
2022-08-30T00:01:45.682Z,4.63
2022-08-30T00:02:17.528Z,6.43
2022-08-30T00:02:49.741Z,6.10
2022-08-30T00:03:22.005Z,5.03
2022-08-30T00:03:55.284Z,5.70
2022-08-30T00:04:27.258Z,5.70
2022-08-30T00:05:01.587Z,5.85
2022-08-30T00:05:34.160Z,5.20
2022-08-30T00:06:06.669Z,6.85
2022-08-30T00:06:38.239Z,4.50
2022-08-30T00:07:09.868Z,10.05
2022-08-30T00:07:41.560Z,5.05
2022-08-30T00:08:13.494Z,5.93
2022-08-30T00:08:46.038Z,4.70
2022-08-30T00:09:17.735Z,8.75
2022-08-30T00:09:49.291Z,5.65
2022-08-30T00:10:21.670Z,4.88
2022-08-30T00:10:53.391Z,4.68
2022-08-30T00:11:28.046Z,4.95
2022-08-30T00:12:00.180Z,5.32
2022-08-30T00:12:32.753Z,6.75
2022-08-30T00:13:06.619Z,5.07
2022-08-30T00:13:38.747Z,7.32
2022-08-30T00:14:10.363Z,6.15
2022-08-30T00:14:41.935Z,5.47
2022-08-30T00:15:14.171Z,7.38
2022-08-30T00:15:46.506Z,5.75
2022-08-30T00:16:20.576Z,6.38
2022-08-30T00:16:52.241Z,8.15
2022-08-30T00:17:23.896Z,10.20
2022-08-30T00:17:55.723Z,6.65
2022-08-30T00:18:27.284Z,4.95
2022-08-30T00:18:58.925Z,5.43
2022-08-30T00:19:30.475Z,5.65
2022-08-30T00:20:03.010Z,4.47
2022-08-30T00:20:35.801Z,5.03
2022-08-30T00:21:08.693Z,5.63
2022-08-30T00:21:40.720Z,11.10
2022-08-30T00:22:12.409Z,4.80
2022-08-30T00:22:44.831Z,7.43
2022-08-30T00:23:18.010Z,4.72
2022-08-30T00:23:49.844Z,4.90
2022-08-30T00:24:21.451Z,4.90
2022-08-30T00:24:52.992Z,7.72
2022-08-30T00:25:24.617Z,5.10
2022-08-30T00:25:56.343Z,5.15
2022-08-30T00:26:27.988Z,6.75
2022-08-30T00:26:59.496Z,5.13
2022-08-30T00:27:31.418Z,7.75
2022-08-30T00:28:03.246Z,5.50
2022-08-30T00:28:35.643Z,8.98
2022-08-30T00:29:09.862Z,4.43
2022-08-30T00:29:41.440Z,10.38
2022-08-30T00:30:14.148Z,4.18
2022-08-30T00:30:46.366Z,6.35
2022-08-30T00:31:17.974Z,5.55
2022-08-30T00:31:49.651Z,8.15
2022-08-30T00:32:21.833Z,7.63
2022-08-30T00:32:54.231Z,8.45
2022-08-30T00:33:25.852Z,6.75
2022-08-30T00:33:57.338Z,11.68
2022-08-30T00:34:28.931Z,6.60
2022-08-30T00:35:00.495Z,4.75
2022-08-30T00:35:32.111Z,23.83
2022-08-30T00:36:03.686Z,4.80
2022-08-30T00:36:35.217Z,4.38
2022-08-30T00:37:06.882Z,4.40
2022-08-30T00:37:38.967Z,9.43
2022-08-30T00:38:12.448Z,7.38
2022-08-30T00:38:44.013Z,8.35
2022-08-30T00:39:15.528Z,4.75
2022-08-30T00:39:47.517Z,4.88
2022-08-30T00:40:27.343Z,7.93
2022-08-30T00:40:59.779Z,11.05
2022-08-30T00:46:32.619Z,6.35
2022-08-30T00:47:04.256Z,7.68
2022-08-30T00:47:35.842Z,4.75
2022-08-30T00:48:07.731Z,7.53
2022-08-30T00:48:42.362Z,4.47
2022-08-30T00:49:14.467Z,4.78
2022-08-30T00:49:48.547Z,4.18
2022-08-30T00:50:22.380Z,4.03
2022-08-30T00:51:00.919Z,5.32
2022-08-30T00:51:33.418Z,4.72
2022-08-30T00:52:06.107Z,6.72
2022-08-30T00:52:41.202Z,4.72
2022-08-30T00:53:18.212Z,4.47
2022-08-30T00:53:54.901Z,5.00
2022-08-30T00:54:27.638Z,4.93
2022-08-30T00:54:59.340Z,5.05
2022-08-30T00:55:31.037Z,4.30
2022-08-30T00:56:03.611Z,4.60
2022-08-30T00:56:35.472Z,9.23
2022-08-30T00:57:07.275Z,4.05
2022-08-30T00:57:39.140Z,5.25
2022-08-30T00:58:13.979Z,8.35
2022-08-30T00:58:49.208Z,5.82
2022-08-30T00:59:22.075Z,6.03
2022-08-30T00:59:53.913Z,4.47
2022-08-30T01:00:26.199Z,5.47
2022-08-30T01:00:58.775Z,4.88
2022-08-30T01:01:34.089Z,5.10
2022-08-30T01:02:06.124Z,5.25
2022-08-30T01:02:37.947Z,5.95
2022-08-30T01:03:09.741Z,4.55
2022-08-30T01:03:43.493Z,5.55
2022-08-30T01:04:15.443Z,4.85
2022-08-30T01:04:47.203Z,5.05
2022-08-30T01:05:19.613Z,8.63
2022-08-30T01:05:51.710Z,5.15
2022-08-30T01:06:23.275Z,7.32
2022-08-30T01:06:54.881Z,14.68
2022-08-30T01:07:26.400Z,27.40
2022-08-30T01:07:59.767Z,99.10
2022-08-30T01:08:31.388Z,103.32
2022-08-30T01:09:04.571Z,69.30
2022-08-30T01:09:36.652Z,28.73
2022-08-30T01:10:11.544Z,34.72
2022-08-30T01:10:43.959Z,37.80
2022-08-30T01:11:18.312Z,24.52
2022-08-30T01:11:50.611Z,24.27
2022-08-30T01:12:23.424Z,10.73
2022-08-30T01:12:55.001Z,9.88
2022-08-30T01:13:27.082Z,5.20
2022-08-30T01:13:58.915Z,5.00
2022-08-30T01:14:33.238Z,15.93
2022-08-30T01:15:06.225Z,27.30
2022-08-30T01:15:38.026Z,16.55
2022-08-30T01:16:10.355Z,17.90
2022-08-30T01:16:43.491Z,6.50
2022-08-30T01:17:15.384Z,12.43
2022-08-30T01:17:49.410Z,9.27
2022-08-30T01:18:22.297Z,10.48
2022-08-30T01:18:56.942Z,8.75
2022-08-30T01:19:45.600Z,9.18
2022-08-30T01:20:25.156Z,5.72
2022-08-30T01:21:16.036Z,6.88
2022-08-30T01:21:57.876Z,5.28
2022-08-30T01:22:42.835Z,9.30
2022-08-30T01:23:18.518Z,5.38
2022-08-30T01:23:53.705Z,4.72
2022-08-30T01:24:25.332Z,6.35
2022-08-30T01:24:59.451Z,7.25
2022-08-30T01:25:31.360Z,10.52
2022-08-30T01:26:05.659Z,5.40
2022-08-30T01:26:37.555Z,5.07
2022-08-30T01:27:09.140Z,13.13
2022-08-30T01:27:44.739Z,14.38
2022-08-30T01:28:22.234Z,9.45
2022-08-30T01:28:57.487Z,12.70
2022-08-30T01:29:29.426Z,4.55
2022-08-30T01:30:01.500Z,5.28
2022-08-30T01:30:33.574Z,7.15
2022-08-30T01:31:05.418Z,12.35
2022-08-30T01:31:37.284Z,4.88
2022-08-30T01:32:19.699Z,5.07
2022-08-30T01:32:58.395Z,4.40
2022-08-30T01:33:30.424Z,5.60
2022-08-30T01:34:02.324Z,6.25
2022-08-30T01:34:33.850Z,5.65
2022-08-30T01:35:06.015Z,10.30
2022-08-30T01:36:00.514Z,16.48
2022-08-30T01:36:32.046Z,15.93
2022-08-30T01:37:03.803Z,39.40
2022-08-30T01:37:36.698Z,25.45
2022-08-30T01:38:08.238Z,16.45
2022-08-30T01:38:43.853Z,6.63
2022-08-30T01:39:17.235Z,14.88
2022-08-30T01:39:49.024Z,12.80
2022-08-30T01:40:20.857Z,13.77
2022-08-30T01:41:00.755Z,6.00
2022-08-30T01:41:35.090Z,17.40
2022-08-30T01:42:06.851Z,19.83
2022-08-30T01:42:38.535Z,28.13
2022-08-30T01:43:12.852Z,19.10
2022-08-30T01:43:45.209Z,22.38
2022-08-30T01:44:16.908Z,12.90
2022-08-30T01:44:48.911Z,7.65
2022-08-30T01:45:20.649Z,6.53
2022-08-30T01:45:52.563Z,9.27
2022-08-30T01:46:28.205Z,8.68
2022-08-30T01:46:59.810Z,6.40
2022-08-30T01:47:31.367Z,8.30
2022-08-30T01:48:03.763Z,7.38
2022-08-30T01:48:39.611Z,9.93
2022-08-30T01:49:13.767Z,6.30
2022-08-30T01:49:46.498Z,13.95
2022-08-30T01:50:18.034Z,10.13
2022-08-30T01:50:49.657Z,6.40
2022-08-30T01:51:23.098Z,7.63
2022-08-30T01:52:01.127Z,5.80
2022-08-30T01:52:34.939Z,5.30
2022-08-30T01:53:06.633Z,5.93
2022-08-30T01:53:39.953Z,6.25
2022-08-30T01:54:12.117Z,6.28
2022-08-30T01:54:44.857Z,4.90
2022-08-30T01:55:16.533Z,3.83
2022-08-30T01:55:48.115Z,4.60
2022-08-30T01:56:19.971Z,3.92
2022-08-30T01:56:52.385Z,4.57
2022-08-30T01:57:26.879Z,4.88
2022-08-30T01:57:58.433Z,5.53
2022-08-30T01:58:30.094Z,6.75
2022-08-30T01:59:03.131Z,7.82
2022-08-30T01:59:35.229Z,5.13
2022-08-30T02:00:09.159Z,4.60
2022-08-30T02:00:43.945Z,10.80
2022-08-30T02:01:17.232Z,5.78
2022-08-30T02:01:48.918Z,6.90
2022-08-30T02:02:24.272Z,6.57
2022-08-30T02:02:58.109Z,6.80
2022-08-30T02:03:33.161Z,6.47
2022-08-30T02:04:06.450Z,6.60
2022-08-30T02:04:38.019Z,4.88
2022-08-30T02:05:09.756Z,5.25
2022-08-30T02:05:41.323Z,4.93
2022-08-30T02:06:16.674Z,7.45
2022-08-30T02:06:49.207Z,5.72
2022-08-30T02:07:22.820Z,7.05
2022-08-30T02:07:54.568Z,5.45
2022-08-30T02:08:26.163Z,4.78
2022-08-30T02:09:02.290Z,4.55
2022-08-30T02:09:33.994Z,5.75
2022-08-30T02:10:06.410Z,5.80
2022-08-30T02:10:38.003Z,4.95
2022-08-30T02:11:10.712Z,5.80
2022-08-30T02:11:42.435Z,5.35
2022-08-30T02:12:14.356Z,7.18
2022-08-30T02:12:45.847Z,5.40
2022-08-30T02:13:17.836Z,5.05
2022-08-30T02:13:49.562Z,5.65
2022-08-30T02:14:21.300Z,4.47
2022-08-30T02:14:53.262Z,5.38
2022-08-30T02:15:25.168Z,4.38
2022-08-30T02:15:57.204Z,4.43
2022-08-30T02:16:28.915Z,4.95
2022-08-30T02:17:02.387Z,4.65
2022-08-30T02:17:34.083Z,5.95
2022-08-30T02:18:06.108Z,4.57
2022-08-30T02:18:39.322Z,4.97
2022-08-30T02:19:11.513Z,4.90
2022-08-30T02:20:21.970Z,5.30
2022-08-30T02:20:53.648Z,7.70
2022-08-30T02:21:27.550Z,5.88
2022-08-30T02:21:59.145Z,5.05
2022-08-30T02:22:30.719Z,4.95
2022-08-30T02:23:02.418Z,6.22
2022-08-30T02:23:34.192Z,5.20
2022-08-30T02:24:06.163Z,5.22
2022-08-30T02:24:38.183Z,4.75
2022-08-30T02:25:09.896Z,5.18
2022-08-30T02:25:52.088Z,5.18
2022-08-30T02:26:24.249Z,6.45
2022-08-30T02:26:55.976Z,7.90
2022-08-30T02:27:27.567Z,5.50
2022-08-30T02:27:59.189Z,5.97
2022-08-30T02:28:30.791Z,7.65
2022-08-30T02:29:05.300Z,9.30
2022-08-30T02:29:36.843Z,11.60
2022-08-30T02:30:10.355Z,6.88
2022-08-30T02:30:43.022Z,6.00
2022-08-30T02:31:15.470Z,5.63
2022-08-30T02:31:51.236Z,7.40
2022-08-30T02:32:22.775Z,9.68
2022-08-30T02:32:54.917Z,5.75
2022-08-30T02:33:26.622Z,6.30
2022-08-30T02:33:58.263Z,6.00
2022-08-30T02:34:29.905Z,6.85
2022-08-30T02:35:01.718Z,7.45
2022-08-30T02:35:33.792Z,7.13
2022-08-30T02:36:06.478Z,7.10
2022-08-30T02:36:40.790Z,5.97
2022-08-30T02:37:12.374Z,6.22
2022-08-30T02:37:44.215Z,5.72
2022-08-30T02:38:15.799Z,7.65
2022-08-30T02:38:51.815Z,8.98
2022-08-30T02:39:23.507Z,7.47
2022-08-30T02:39:55.085Z,5.45
2022-08-30T02:40:26.833Z,12.23
2022-08-30T02:40:58.476Z,19.25
2022-08-30T02:41:30.106Z,19.63
2022-08-30T02:42:01.971Z,9.77
2022-08-30T02:42:33.959Z,5.88
2022-08-30T02:43:05.599Z,14.15
2022-08-30T02:43:37.112Z,5.43
2022-08-30T02:44:09.964Z,13.80
2022-08-30T02:44:41.662Z,7.32
2022-08-30T02:45:13.386Z,5.72
2022-08-30T02:45:45.058Z,9.27
2022-08-30T02:46:17.354Z,7.38
2022-08-30T02:46:48.998Z,9.00
2022-08-30T02:47:20.740Z,6.30
2022-08-30T02:47:52.520Z,6.43
2022-08-30T02:48:24.359Z,6.13
2022-08-30T02:48:55.971Z,7.15
2022-08-30T02:49:33.471Z,5.80
2022-08-30T02:50:07.089Z,8.75
2022-08-30T02:50:43.433Z,6.40
2022-08-30T02:51:15.380Z,5.82
2022-08-30T02:51:46.929Z,6.35
2022-08-30T02:52:19.831Z,5.65
2022-08-30T02:52:58.143Z,6.95
2022-08-30T02:53:29.764Z,6.63
2022-08-30T02:54:01.335Z,6.63
2022-08-30T02:54:33.410Z,6.38
2022-08-30T02:55:06.747Z,6.25
2022-08-30T02:55:38.475Z,11.75
2022-08-30T02:56:12.074Z,7.00
2022-08-30T02:56:43.605Z,5.85
2022-08-30T02:57:20.372Z,6.50
2022-08-30T02:57:52.033Z,5.85
2022-08-30T02:58:23.694Z,5.90
2022-08-30T02:58:55.367Z,6.57
2022-08-30T02:59:26.983Z,6.13
2022-08-30T02:59:58.712Z,6.03
2022-08-30T03:00:30.809Z,6.78
2022-08-30T03:01:02.453Z,5.30
2022-08-30T03:01:36.294Z,5.32
2022-08-30T03:02:07.915Z,5.93
2022-08-30T03:02:40.614Z,5.93
2022-08-30T03:03:12.145Z,7.18
2022-08-30T03:03:45.830Z,9.95
2022-08-30T03:04:19.013Z,6.45
2022-08-30T03:04:57.882Z,7.53
2022-08-30T03:05:33.493Z,9.65
2022-08-30T03:06:05.350Z,11.50
2022-08-30T03:06:37.063Z,13.80
2022-08-30T03:07:08.848Z,9.40
2022-08-30T03:07:41.517Z,11.68
2022-08-30T03:08:13.288Z,16.65
2022-08-30T03:08:45.012Z,19.35
2022-08-30T03:09:16.591Z,11.45
2022-08-30T03:09:48.169Z,10.40
2022-08-30T03:10:19.912Z,6.40
2022-08-30T03:10:51.508Z,13.45
2022-08-30T03:11:23.185Z,6.45
2022-08-30T03:11:55.322Z,8.77
2022-08-30T03:12:27.568Z,9.30
2022-08-30T03:12:59.156Z,9.23
2022-08-30T03:13:30.855Z,6.53
2022-08-30T03:14:02.465Z,12.45
2022-08-30T03:14:36.291Z,7.88
2022-08-30T03:15:10.039Z,9.18
2022-08-30T03:15:41.814Z,9.07
2022-08-30T03:16:13.542Z,6.75
2022-08-30T03:16:45.437Z,6.32
2022-08-30T03:17:17.480Z,5.95
2022-08-30T03:17:48.963Z,6.03
2022-08-30T03:18:21.556Z,6.07
2022-08-30T03:18:53.071Z,6.57
2022-08-30T03:19:25.520Z,8.63
2022-08-30T03:20:00.374Z,7.78
2022-08-30T03:20:32.165Z,6.53
2022-08-30T03:21:04.217Z,9.07
2022-08-30T03:21:37.774Z,6.20
2022-08-30T03:22:09.356Z,6.30
2022-08-30T03:22:40.923Z,6.82
2022-08-30T03:23:13.253Z,10.52
2022-08-30T03:23:53.340Z,7.20
2022-08-30T03:24:25.885Z,7.07
2022-08-30T03:25:01.638Z,7.60
2022-08-30T03:25:33.916Z,7.22
2022-08-30T03:26:06.459Z,7.43
2022-08-30T03:26:37.946Z,6.70
2022-08-30T03:27:09.751Z,6.80
2022-08-30T03:27:41.479Z,8.50
2022-08-30T03:28:13.057Z,7.70
2022-08-30T03:28:44.553Z,7.80
2022-08-30T03:29:16.171Z,7.90
2022-08-30T03:29:47.658Z,8.63
2022-08-30T03:30:20.533Z,7.35
2022-08-30T03:30:52.106Z,8.00
2022-08-30T03:31:23.807Z,7.80
2022-08-30T03:31:56.748Z,8.30
2022-08-30T03:32:28.467Z,7.60
2022-08-30T03:33:01.458Z,7.40
2022-08-30T03:33:33.335Z,8.57
2022-08-30T03:34:10.822Z,8.35
2022-08-30T03:34:42.374Z,8.07
2022-08-30T03:35:14.695Z,10.88
2022-08-30T03:35:46.242Z,8.10
2022-08-30T03:36:17.784Z,8.10
2022-08-30T03:36:50.222Z,7.68
2022-08-30T03:37:26.845Z,10.63
2022-08-30T03:37:59.230Z,7.88
2022-08-30T03:38:31.172Z,7.70
2022-08-30T03:39:02.706Z,7.60
2022-08-30T03:39:34.319Z,7.45
2022-08-30T03:40:07.613Z,8.40
2022-08-30T03:40:39.950Z,9.40
2022-08-30T03:41:11.963Z,9.38
2022-08-30T03:41:45.814Z,7.15
2022-08-30T03:42:17.521Z,8.48
2022-08-30T03:42:49.006Z,9.10
2022-08-30T03:43:20.591Z,7.78
2022-08-30T03:43:52.604Z,8.85
2022-08-30T03:44:31.630Z,8.02
2022-08-30T03:45:04.935Z,8.93
2022-08-30T03:45:36.656Z,9.55
2022-08-30T03:46:08.229Z,8.52
2022-08-30T03:46:40.225Z,13.20
2022-08-30T03:47:12.082Z,10.10
2022-08-30T03:47:43.867Z,9.77
2022-08-30T03:48:15.415Z,8.23
2022-08-30T03:48:47.207Z,10.93
2022-08-30T03:49:19.904Z,9.25
2022-08-30T03:49:51.440Z,8.43
2022-08-30T03:50:22.999Z,9.80
2022-08-30T03:50:54.594Z,10.07
2022-08-30T03:51:26.329Z,10.02
2022-08-30T03:51:57.872Z,9.18
2022-08-30T03:52:29.473Z,8.70
2022-08-30T03:53:01.955Z,8.18
2022-08-30T03:53:33.604Z,9.60
2022-08-30T03:54:05.192Z,10.77
2022-08-30T03:54:36.745Z,9.77
2022-08-30T03:55:09.600Z,10.45
2022-08-30T03:55:41.065Z,8.85
2022-08-30T03:56:12.584Z,9.20
2022-08-30T03:56:44.228Z,10.98
2022-08-30T03:57:20.189Z,9.30
2022-08-30T03:57:56.636Z,8.70
2022-08-30T03:58:29.527Z,10.68
2022-08-30T03:59:01.294Z,9.05
2022-08-30T03:59:33.051Z,10.48
2022-08-30T04:00:06.831Z,9.82
2022-08-30T04:00:43.123Z,8.68
2022-08-30T04:01:14.775Z,10.50
2022-08-30T04:01:47.847Z,9.00
2022-08-30T04:02:20.373Z,9.23
2022-08-30T04:02:51.907Z,9.07
2022-08-30T04:03:26.046Z,10.88
2022-08-30T04:03:57.670Z,7.75
2022-08-30T04:04:29.630Z,11.18
2022-08-30T04:05:01.130Z,10.30
2022-08-30T04:05:32.659Z,8.65
2022-08-30T04:06:04.787Z,9.93
2022-08-30T04:06:36.299Z,11.43
2022-08-30T04:07:07.861Z,9.60
2022-08-30T04:07:39.709Z,8.52
2022-08-30T04:08:11.347Z,8.70
2022-08-30T04:08:44.803Z,8.27
2022-08-30T04:09:17.745Z,8.68
2022-08-30T04:09:49.283Z,8.52
2022-08-30T04:10:21.721Z,9.73
2022-08-30T04:10:53.968Z,12.30
2022-08-30T04:11:25.545Z,9.40
2022-08-30T04:11:57.134Z,10.00
2022-08-30T04:12:28.711Z,12.45
2022-08-30T04:13:00.595Z,11.25
2022-08-30T04:13:32.063Z,10.27
2022-08-30T04:14:04.134Z,10.85
2022-08-30T04:14:35.614Z,10.90
2022-08-30T04:15:09.465Z,11.93
2022-08-30T04:15:41.535Z,11.60
2022-08-30T04:16:13.094Z,9.25
2022-08-30T04:16:45.577Z,10.45
2022-08-30T04:17:17.325Z,10.80
2022-08-30T04:17:49.269Z,11.00
2022-08-30T04:18:20.787Z,11.38
2022-08-30T04:18:52.675Z,17.08
2022-08-30T04:19:24.633Z,9.25
2022-08-30T04:19:56.204Z,16.98
2022-08-30T04:20:27.811Z,10.00
2022-08-30T04:20:59.301Z,9.80
2022-08-30T04:21:31.257Z,11.85
2022-08-30T04:22:02.815Z,9.55
2022-08-30T04:22:34.315Z,10.23
2022-08-30T04:23:09.647Z,8.88
2022-08-30T04:23:41.939Z,15.05
2022-08-30T04:24:13.931Z,11.82
2022-08-30T04:24:45.484Z,10.07
2022-08-30T04:25:17.698Z,10.80
2022-08-30T04:25:49.214Z,10.30
2022-08-30T04:26:21.312Z,11.18
2022-08-30T04:26:52.919Z,11.98
2022-08-30T04:27:24.472Z,9.20
2022-08-30T04:27:55.959Z,12.32
2022-08-30T04:28:27.830Z,10.20
2022-08-30T04:28:59.355Z,10.57
2022-08-30T04:29:30.964Z,12.52
2022-08-30T04:30:02.619Z,10.45
2022-08-30T04:30:34.778Z,12.45
2022-08-30T04:31:11.797Z,11.52
2022-08-30T04:31:45.272Z,10.68
2022-08-30T04:32:17.138Z,10.20
2022-08-30T04:32:48.922Z,10.75
2022-08-30T04:33:20.946Z,9.65
2022-08-30T04:33:52.456Z,10.30
2022-08-30T04:34:24.020Z,10.52
2022-08-30T04:34:57.480Z,11.73
2022-08-30T04:35:29.053Z,11.85
2022-08-30T04:36:04.492Z,9.60
2022-08-30T04:36:36.029Z,10.50
2022-08-30T04:37:09.885Z,11.35
2022-08-30T04:37:41.630Z,8.98
2022-08-30T04:38:13.926Z,9.45
2022-08-30T04:38:45.791Z,12.32
2022-08-30T04:39:18.467Z,12.23
2022-08-30T04:39:50.688Z,15.95
2022-08-30T04:40:23.182Z,10.95
2022-08-30T04:40:55.305Z,11.45
2022-08-30T04:41:27.106Z,13.20
2022-08-30T04:41:58.723Z,9.80
2022-08-30T04:42:32.572Z,11.73
2022-08-30T04:43:04.526Z,10.93
2022-08-30T04:43:36.060Z,10.30
2022-08-30T04:44:08.051Z,10.05
2022-08-30T04:44:42.423Z,10.40
2022-08-30T04:45:16.036Z,10.40
2022-08-30T04:45:48.297Z,12.15
2022-08-30T04:46:19.988Z,10.25
2022-08-30T04:46:52.531Z,9.68
2022-08-30T04:47:24.163Z,14.68
2022-08-30T04:47:56.415Z,9.70
2022-08-30T04:48:29.563Z,10.48
2022-08-30T04:49:01.176Z,13.30
2022-08-30T04:49:32.999Z,10.13
2022-08-30T04:50:06.110Z,9.15
2022-08-30T04:50:37.831Z,8.93
2022-08-30T04:51:17.488Z,9.15
2022-08-30T04:51:49.096Z,12.63
2022-08-30T04:52:20.862Z,9.60
2022-08-30T04:52:52.484Z,10.77
2022-08-30T04:53:24.065Z,10.90
2022-08-30T04:53:55.618Z,12.95
2022-08-30T04:54:27.315Z,8.43
2022-08-30T04:54:59.270Z,10.18
2022-08-30T04:55:30.979Z,8.77
2022-08-30T04:56:10.755Z,9.75
2022-08-30T04:56:43.690Z,8.00
2022-08-30T04:57:15.168Z,13.27
2022-08-30T04:57:46.669Z,9.18
2022-08-30T04:58:18.175Z,16.35
2022-08-30T04:58:53.411Z,10.43
2022-08-30T04:59:34.633Z,7.70
2022-08-30T05:00:09.133Z,7.90
2022-08-30T05:00:43.747Z,8.70
2022-08-30T05:01:20.523Z,8.48
2022-08-30T05:02:00.621Z,9.32
2022-08-30T05:02:32.262Z,13.20
2022-08-30T05:03:04.127Z,9.52
2022-08-30T05:03:35.631Z,10.30
2022-08-30T05:04:07.231Z,10.30
2022-08-30T05:04:58.709Z,8.68
2022-08-30T05:06:14.889Z,10.13
2022-08-30T05:06:46.514Z,9.38
2022-08-30T05:07:18.043Z,9.38
2022-08-30T05:07:49.522Z,6.85
2022-08-30T05:08:24.760Z,8.85
2022-08-30T05:09:00.332Z,8.35
2022-08-30T05:09:31.802Z,7.82
2022-08-30T05:10:09.106Z,10.48
2022-08-30T05:10:45.039Z,13.93
2022-08-30T05:11:16.951Z,10.52
2022-08-30T05:11:48.572Z,8.68
2022-08-30T05:12:20.398Z,8.23
2022-08-30T05:12:51.866Z,9.45
2022-08-30T05:13:26.248Z,10.32
2022-08-30T05:14:07.255Z,7.20
2022-08-30T05:14:38.738Z,8.30
2022-08-30T05:15:11.700Z,11.98
2022-08-30T05:15:43.980Z,8.93
2022-08-30T05:16:17.980Z,8.82
2022-08-30T05:16:49.874Z,10.43
2022-08-30T05:17:21.447Z,9.80
2022-08-30T05:17:53.070Z,13.57
2022-08-30T05:18:24.567Z,9.40
2022-08-30T05:18:56.284Z,9.10
2022-08-30T05:19:27.867Z,11.15
2022-08-30T05:20:01.801Z,8.85
2022-08-30T05:20:33.921Z,10.88
2022-08-30T05:21:14.697Z,9.32
2022-08-30T05:21:46.183Z,11.00
2022-08-30T05:22:17.739Z,9.55
2022-08-30T05:22:53.671Z,9.15
2022-08-30T05:23:25.689Z,12.40
2022-08-30T05:23:58.590Z,10.20
2022-08-30T05:24:32.140Z,9.10
2022-08-30T05:25:05.290Z,8.98
2022-08-30T05:25:40.918Z,10.77
2022-08-30T05:26:16.027Z,8.70
2022-08-30T05:27:20.067Z,9.85
2022-08-30T05:27:52.583Z,9.80
2022-08-30T05:28:26.182Z,11.30
2022-08-30T05:28:58.614Z,10.32
2022-08-30T05:29:33.563Z,9.45
2022-08-30T05:30:06.306Z,10.85
2022-08-30T05:30:38.363Z,10.75
2022-08-30T05:31:15.932Z,11.10
2022-08-30T05:31:47.505Z,11.23
2022-08-30T05:32:19.073Z,9.23
2022-08-30T05:32:51.199Z,13.25
2022-08-30T05:33:22.757Z,9.88
2022-08-30T05:33:55.098Z,9.68
2022-08-30T05:34:27.034Z,9.27
2022-08-30T05:34:58.524Z,9.13
2022-08-30T05:35:30.018Z,11.05
2022-08-30T05:36:01.514Z,11.00
2022-08-30T05:36:36.266Z,9.15
2022-08-30T05:37:07.767Z,8.63
2022-08-30T05:37:39.842Z,8.95
2022-08-30T05:38:11.322Z,8.75
2022-08-30T05:38:43.547Z,8.52
2022-08-30T05:39:15.674Z,10.80
2022-08-30T05:39:52.652Z,9.57
2022-08-30T05:40:24.224Z,9.68
2022-08-30T05:40:56.295Z,12.23
2022-08-30T05:41:28.634Z,9.07
2022-08-30T05:42:00.546Z,8.65
2022-08-30T05:42:32.174Z,8.02
2022-08-30T05:43:03.927Z,11.35
2022-08-30T05:43:36.383Z,13.43
2022-08-30T05:44:09.509Z,8.40
2022-08-30T05:44:41.036Z,10.60
2022-08-30T05:45:16.100Z,8.48
2022-08-30T05:45:47.619Z,8.52
2022-08-30T05:46:19.893Z,7.57
2022-08-30T05:46:51.853Z,10.32
2022-08-30T05:47:23.501Z,7.70
2022-08-30T05:47:56.474Z,8.90
2022-08-30T05:48:28.782Z,9.95
2022-08-30T05:49:03.783Z,8.23
2022-08-30T05:49:35.391Z,8.48
2022-08-30T05:50:07.545Z,9.45
2022-08-30T05:50:40.062Z,9.13
2022-08-30T05:51:15.106Z,11.07
2022-08-30T05:51:46.634Z,10.45
2022-08-30T05:52:18.372Z,7.88
2022-08-30T05:52:49.877Z,8.02
2022-08-30T05:53:21.539Z,7.93
2022-08-30T05:53:53.899Z,6.68
2022-08-30T05:54:25.541Z,7.55
2022-08-30T05:55:00.263Z,7.40
2022-08-30T05:55:31.798Z,8.65
2022-08-30T05:56:05.569Z,7.80
2022-08-30T05:56:39.161Z,6.43
2022-08-30T05:57:11.088Z,6.85
2022-08-30T05:57:42.698Z,7.07
2022-08-30T05:58:14.275Z,9.25
2022-08-30T05:58:46.407Z,7.00
2022-08-30T05:59:18.206Z,7.18
2022-08-30T05:59:49.839Z,7.45
2022-08-30T06:00:21.562Z,8.25
2022-08-30T06:00:53.136Z,7.32
2022-08-30T06:01:29.983Z,7.47
2022-08-30T06:02:01.611Z,8.82
2022-08-30T06:02:33.406Z,6.82
2022-08-30T06:03:04.952Z,6.43
2022-08-30T06:03:36.564Z,5.57
2022-08-30T06:04:09.677Z,6.03
2022-08-30T06:04:41.223Z,5.60
2022-08-30T06:05:14.930Z,5.75
2022-08-30T06:06:19.059Z,5.47
2022-08-30T06:06:50.669Z,6.95
2022-08-30T06:07:22.989Z,4.10
2022-08-30T06:07:54.576Z,6.10
2022-08-30T06:08:26.344Z,5.90
2022-08-30T06:08:57.904Z,5.13
2022-08-30T06:09:29.606Z,5.97
2022-08-30T06:10:01.309Z,6.18
2022-08-30T06:10:32.798Z,5.25
2022-08-30T06:11:04.356Z,5.05
2022-08-30T06:11:36.488Z,6.22
2022-08-30T06:12:08.314Z,6.35
2022-08-30T06:12:40.007Z,4.90
2022-08-30T06:13:13.418Z,5.13
2022-08-30T06:13:45.664Z,8.38
2022-08-30T06:14:17.363Z,3.92
2022-08-30T06:14:49.102Z,3.40
2022-08-30T06:15:20.642Z,4.40
2022-08-30T06:15:52.781Z,5.53
2022-08-30T06:16:26.425Z,3.70
2022-08-30T06:16:58.510Z,4.72
2022-08-30T06:17:30.119Z,6.95
2022-08-30T06:18:01.677Z,4.65
2022-08-30T06:18:33.402Z,3.53
2022-08-30T06:19:08.408Z,3.70
2022-08-30T06:19:40.101Z,4.25
2022-08-30T06:20:12.002Z,3.13
2022-08-30T06:20:47.443Z,3.35
2022-08-30T06:21:28.701Z,3.63
2022-08-30T06:22:00.931Z,3.33
2022-08-30T06:22:32.518Z,3.55
2022-08-30T06:23:04.083Z,4.78
2022-08-30T06:23:35.842Z,6.35
2022-08-30T06:24:08.868Z,2.47
2022-08-30T06:24:56.857Z,3.88
2022-08-30T06:25:28.835Z,5.05
2022-08-30T06:26:13.988Z,2.63
2022-08-30T06:26:47.243Z,3.72
2022-08-30T06:27:18.799Z,3.92
2022-08-30T06:27:54.558Z,6.00
2022-08-30T06:28:28.096Z,3.22
2022-08-30T06:28:59.597Z,5.78
2022-08-30T06:29:31.211Z,3.08
2022-08-30T06:30:03.924Z,5.53
2022-08-30T06:30:35.503Z,3.22
2022-08-30T06:31:08.597Z,3.03
2022-08-30T06:31:40.812Z,5.60
2022-08-30T06:32:12.330Z,2.65
2022-08-30T06:32:44.016Z,3.53
2022-08-30T06:33:15.781Z,4.93
2022-08-30T06:33:47.991Z,2.63
2022-08-30T06:34:19.645Z,3.13
2022-08-30T06:34:51.288Z,9.75
2022-08-30T06:35:22.817Z,1.98
2022-08-30T06:35:58.860Z,2.33
2022-08-30T06:36:32.373Z,2.55
2022-08-30T06:37:03.980Z,2.28
2022-08-30T06:37:35.590Z,2.90
2022-08-30T06:38:07.093Z,2.70
2022-08-30T06:38:39.574Z,2.80
2022-08-30T06:39:11.248Z,3.42
2022-08-30T06:39:42.811Z,4.15
2022-08-30T06:40:16.758Z,3.47
2022-08-30T06:40:48.564Z,3.08
2022-08-30T06:41:23.006Z,4.22
2022-08-30T06:41:54.622Z,2.92
2022-08-30T06:42:33.470Z,2.55
2022-08-30T06:43:04.954Z,4.97
2022-08-30T06:43:37.377Z,3.38
2022-08-30T06:44:09.135Z,3.53
2022-08-30T06:44:40.658Z,2.40
2022-08-30T06:45:18.329Z,2.92
2022-08-30T06:45:49.887Z,2.58
2022-08-30T06:46:34.992Z,4.13
2022-08-30T06:47:07.554Z,3.22
2022-08-30T06:47:40.170Z,2.17
2022-08-30T06:48:11.687Z,2.03
2022-08-30T06:48:46.360Z,2.75
2022-08-30T06:49:20.399Z,2.72
2022-08-30T06:49:51.988Z,2.28
2022-08-30T06:50:25.959Z,2.63
2022-08-30T06:50:57.928Z,2.63
2022-08-30T06:51:34.944Z,4.95
2022-08-30T06:52:06.733Z,2.60
2022-08-30T06:52:39.259Z,2.10
2022-08-30T06:53:11.755Z,2.67
2022-08-30T06:53:43.376Z,4.22
2022-08-30T06:54:15.077Z,2.80
2022-08-30T06:54:46.750Z,5.03
2022-08-30T06:55:18.920Z,2.25
2022-08-30T06:56:01.988Z,2.78
2022-08-30T06:56:33.765Z,3.35
2022-08-30T06:57:05.344Z,2.88
2022-08-30T06:57:36.915Z,2.28
2022-08-30T06:58:08.399Z,2.25
2022-08-30T06:58:41.107Z,3.80
2022-08-30T06:59:12.663Z,7.68
2022-08-30T06:59:44.175Z,2.25
2022-08-30T07:00:17.056Z,3.65
2022-08-30T07:00:48.902Z,1.67
2022-08-30T07:01:23.376Z,2.60
2022-08-30T07:01:57.309Z,2.13
2022-08-30T07:02:29.098Z,1.58
2022-08-30T07:03:02.579Z,1.50
2022-08-30T07:03:37.680Z,3.50
2022-08-30T07:04:09.316Z,3.15
2022-08-30T07:04:40.921Z,2.03
2022-08-30T07:05:18.008Z,2.88
2022-08-30T07:05:50.555Z,3.30
2022-08-30T07:06:24.134Z,3.38
2022-08-30T07:06:55.813Z,3.35
2022-08-30T07:07:27.372Z,3.53
2022-08-30T07:08:00.950Z,4.95
2022-08-30T07:08:32.629Z,1.77
2022-08-30T07:09:04.250Z,2.17
2022-08-30T07:09:35.800Z,1.77
2022-08-30T07:10:08.015Z,3.97
2022-08-30T07:10:40.754Z,2.00
2022-08-30T07:11:12.331Z,3.53
2022-08-30T07:11:44.716Z,2.08
2022-08-30T07:12:17.124Z,2.45
2022-08-30T07:12:48.833Z,2.40
2022-08-30T07:13:21.699Z,4.25
2022-08-30T07:13:53.462Z,3.33
2022-08-30T07:14:25.074Z,2.97
2022-08-30T07:14:56.614Z,3.67
2022-08-30T07:15:28.187Z,2.85
2022-08-30T07:16:01.013Z,1.60
2022-08-30T07:16:32.891Z,4.93
2022-08-30T07:17:32.482Z,2.70
2022-08-30T07:18:24.652Z,2.22
2022-08-30T07:18:58.638Z,2.22
2022-08-30T07:19:30.319Z,2.38
2022-08-30T07:20:03.917Z,2.42
2022-08-30T07:20:39.890Z,2.83
2022-08-30T07:21:19.076Z,2.17
2022-08-30T07:21:50.855Z,2.83
2022-08-30T07:22:22.444Z,1.70